Time;durP1;ratioP1;P1;durP2;ratioP2;P2;SDS_P1;SDS_P2;PMS_P1;PMS_P2;Temp;Humidity;BMP_temperature;BMP_pressure;BME280_temperature;BME280_humidity;BME280_pressure;Samples;Min_cycle;Max_cycle;Signal;HPM_P1;HPM_P2
2021/01/26 00:01:22;;;;;;;27.27;21.10;;;2.70;99.90;;;;;;5014328;28;20490;-84
2021/01/26 00:03:47;;;;;;;27.60;19.40;;;2.70;99.90;;;;;;5014568;28;20393;-84
2021/01/26 00:06:13;;;;;;;26.87;18.87;;;2.80;99.90;;;;;;5023882;28;20426;-84
2021/01/26 00:08:39;;;;;;;33.27;20.10;;;2.80;99.90;;;;;;4986868;28;20204;-84
2021/01/26 00:11:05;;;;;;;33.27;23.73;;;2.80;99.90;;;;;;4978579;28;20422;-84
2021/01/26 00:13:32;;;;;;;37.40;20.83;;;2.80;99.90;;;;;;4999125;28;21074;-84
2021/01/26 00:15:58;;;;;;;32.90;20.40;;;2.90;99.90;;;;;;4984214;28;20494;-86
2021/01/26 00:18:24;;;;;;;33.33;21.20;;;2.90;99.90;;;;;;4984047;28;20552;-85
2021/01/26 00:20:50;;;;;;;32.03;21.57;;;2.90;99.90;;;;;;5015854;28;20451;-86
2021/01/26 00:23:17;;;;;;;32.07;22.90;;;2.90;99.90;;;;;;5017874;28;20847;-84
2021/01/26 00:25:43;;;;;;;42.27;19.30;;;2.90;99.90;;;;;;5015487;28;20293;-85
2021/01/26 00:28:11;;;;;;;28.93;17.77;;;2.80;99.90;;;;;;5031118;28;20401;-85
2021/01/26 00:30:39;;;;;;;28.90;19.47;;;2.70;99.90;;;;;;5006058;28;20436;-84
2021/01/26 00:33:11;;;;;;;33.50;19.30;;;2.60;99.90;;;;;;5010917;28;20412;-84
2021/01/26 00:35:37;;;;;;;22.80;18.20;;;2.50;99.90;;;;;;5031813;28;20385;-83
2021/01/26 00:38:03;;;;;;;33.37;17.43;;;2.50;99.90;;;;;;4990599;28;20910;-86
2021/01/26 00:40:30;;;;;;;24.90;18.70;;;2.50;99.90;;;;;;4999255;28;20382;-84
2021/01/26 00:42:57;;;;;;;35.10;22.70;;;2.50;99.90;;;;;;5001492;28;20507;-84
2021/01/26 00:45:24;;;;;;;34.83;22.50;;;2.40;99.90;;;;;;5000871;28;20402;-84
2021/01/26 00:47:50;;;;;;;33.33;22.27;;;2.50;99.90;;;;;;5013721;28;20471;-85
2021/01/26 00:50:17;;;;;;;35.57;22.93;;;2.50;99.90;;;;;;4982602;28;20447;-84
2021/01/26 00:52:42;;;;;;;32.00;22.17;;;2.50;99.90;;;;;;5035062;28;20292;-84
2021/01/26 00:55:09;;;;;;;36.70;25.13;;;2.40;99.90;;;;;;4998859;28;20388;-84
2021/01/26 00:57:35;;;;;;;26.73;17.40;;;2.50;99.90;;;;;;5015812;28;20204;-84
2021/01/26 01:00:04;;;;;;;35.20;24.17;;;2.50;99.90;;;;;;4999657;28;20403;-84
2021/01/26 01:02:29;;;;;;;41.47;24.90;;;2.60;99.90;;;;;;5028767;28;20401;-84
2021/01/26 01:04:56;;;;;;;34.75;24.45;;;2.70;99.90;;;;;;5029691;28;20765;-84
2021/01/26 01:07:21;;;;;;;36.80;21.57;;;2.70;99.90;;;;;;5032338;28;20407;-85
2021/01/26 01:09:47;;;;;;;35.33;22.37;;;2.60;99.90;;;;;;5000675;28;20441;-85
2021/01/26 01:12:13;;;;;;;27.20;20.83;;;2.50;99.90;;;;;;5031317;28;20217;-84
2021/01/26 01:14:40;;;;;;;27.30;21.53;;;2.40;99.90;;;;;;4999336;28;20339;-84
2021/01/26 01:17:05;;;;;;;22.63;16.70;;;2.50;99.90;;;;;;5014752;28;20271;-84
2021/01/26 01:19:31;;;;;;;32.83;20.80;;;2.50;99.90;;;;;;4978268;28;20416;-85
2021/01/26 01:21:57;;;;;;;28.80;19.00;;;2.50;99.90;;;;;;4982044;28;20204;-85
2021/01/26 01:24:22;;;;;;;29.43;20.97;;;2.50;99.90;;;;;;4982811;28;20222;-84
2021/01/26 01:26:49;;;;;;;26.90;20.90;;;2.50;99.90;;;;;;4983689;28;20311;-84
2021/01/26 01:29:15;;;;;;;31.73;21.07;;;2.60;99.90;;;;;;4986235;28;20224;-84
2021/01/26 01:31:40;;;;;;;32.90;22.37;;;2.50;99.90;;;;;;4982182;28;20539;-84
2021/01/26 01:34:06;;;;;;;32.37;17.13;;;2.50;99.90;;;;;;5000542;28;20212;-84
2021/01/26 01:36:33;;;;;;;33.67;19.73;;;2.60;99.90;;;;;;4996780;28;20209;-84
2021/01/26 01:38:59;;;;;;;28.27;19.70;;;2.60;99.90;;;;;;4968572;28;20384;-84
2021/01/26 01:41:31;;;;;;;31.83;20.93;;;2.60;99.90;;;;;;4997315;28;20454;-84
2021/01/26 01:43:57;;;;;;;49.40;26.13;;;2.70;99.90;;;;;;5011961;28;20213;-84
2021/01/26 01:46:24;;;;;;;37.63;24.20;;;2.70;99.90;;;;;;4985757;28;20445;-84
2021/01/26 01:48:56;;;;;;;32.77;21.67;;;2.70;99.90;;;;;;5014398;28;20965;-84
2021/01/26 01:51:25;;;;;;;28.27;18.37;;;2.80;99.90;;;;;;5023164;28;20404;-84
2021/01/26 01:53:56;;;;;;;30.60;22.13;;;2.80;99.90;;;;;;5018304;28;20391;-84
2021/01/26 01:56:33;;;;;;;23.90;17.57;;;2.80;99.90;;;;;;4981527;28;20405;-85
2021/01/26 01:59:05;;;;;;;30.63;16.80;;;2.80;99.90;;;;;;4988527;28;20446;-84
2021/01/26 02:01:31;;;;;;;33.67;20.90;;;2.70;99.90;;;;;;4981140;28;20372;-84
2021/01/26 02:04:26;;;;;;;26.40;19.57;;;2.80;99.90;;;;;;4983658;28;20385;-85
2021/01/26 02:06:55;;;;;;;29.97;18.20;;;2.80;99.90;;;;;;4942895;28;20961;-84
2021/01/26 02:09:33;;;;;;;32.23;21.50;;;2.80;99.90;;;;;;4975389;28;20881;-85
2021/01/26 02:12:00;;;;;;;27.63;19.90;;;2.90;99.90;;;;;;4981788;28;20487;-84
2021/01/26 02:14:29;;;;;;;31.83;20.10;;;2.90;99.90;;;;;;4948523;28;20406;-84
2021/01/26 02:16:54;;;;;;;31.07;19.50;;;3.00;99.90;;;;;;5007265;23;20489;-78
2021/01/26 02:19:51;;;;;;;28.27;18.23;;;3.00;99.90;;;;;;4979448;28;20414;-78
2021/01/26 02:22:39;;;;;;;22.60;16.70;;;3.00;99.90;;;;;;4979916;28;20338;-79
2021/01/26 02:25:30;;;;;;;26.40;22.00;;;3.10;99.90;;;;;;4996836;28;20379;-78
2021/01/26 02:28:34;;;;;;;24.10;17.00;;;3.10;99.90;;;;;;4998803;28;20427;-78
2021/01/26 02:31:39;;;;;;;31.03;19.87;;;3.10;99.90;;;;;;4992965;28;21254;-77
2021/01/26 02:34:43;;;;;;;27.53;16.83;;;3.00;99.90;;;;;;4996424;28;20417;-78
2021/01/26 02:37:36;;;;;;;20.53;16.93;;;3.10;99.90;;;;;;4983212;28;20398;-78
2021/01/26 02:40:14;;;;;;;31.30;19.10;;;3.10;99.90;;;;;;4998405;28;20640;-79
2021/01/26 02:43:08;;;;;;;26.03;16.13;;;3.20;99.90;;;;;;4995767;28;20426;-78
2021/01/26 02:46:04;;;;;;;21.37;16.07;;;3.20;99.90;;;;;;5011838;28;20429;-78
2021/01/26 02:48:40;;;;;;;23.80;16.90;;;3.20;99.90;;;;;;4972005;28;20446;-80
2021/01/26 02:51:09;;;;;;;19.40;14.13;;;3.20;99.90;;;;;;4969383;28;20431;-79
2021/01/26 02:53:44;;;;;;;20.37;12.50;;;3.20;99.90;;;;;;4981666;28;20373;-79
2021/01/26 02:56:34;;;;;;;19.33;14.73;;;3.20;99.90;;;;;;4981347;28;20449;-78
2021/01/26 02:59:21;;;;;;;30.73;15.63;;;3.20;99.90;;;;;;4981717;28;20409;-79
2021/01/26 03:01:54;;;;;;;26.60;15.30;;;3.10;99.90;;;;;;5004209;28;20460;-78
2021/01/26 03:04:59;;;;;;;24.73;14.00;;;3.20;99.90;;;;;;4989253;28;20686;-79
2021/01/26 03:07:29;;;;;;;28.43;18.80;;;3.20;99.90;;;;;;4936416;28;20447;-79
2021/01/26 03:09:59;;;;;;;19.47;15.17;;;3.30;99.90;;;;;;4997729;28;20429;-78
2021/01/26 03:12:30;;;;;;;20.17;11.50;;;3.30;99.90;;;;;;4996373;28;20454;-79
2021/01/26 03:15:07;;;;;;;20.83;14.43;;;3.30;99.90;;;;;;4986200;28;20444;-77
2021/01/26 03:17:42;;;;;;;17.03;11.53;;;3.30;99.90;;;;;;5026003;28;20415;-79
2021/01/26 03:20:35;;;;;;;22.20;14.00;;;3.30;99.90;;;;;;4982072;28;20434;-79
2021/01/26 03:23:17;;;;;;;16.87;11.63;;;3.30;99.90;;;;;;5016812;28;20457;-79
2021/01/26 03:26:14;;;;;;;22.37;13.70;;;3.40;99.90;;;;;;5002990;28;20380;-80
2021/01/26 03:28:43;;;;;;;16.97;13.53;;;3.40;99.90;;;;;;4947588;28;20458;-79
2021/01/26 03:31:15;;;;;;;24.70;13.07;;;3.40;99.90;;;;;;4929419;28;20395;-79
2021/01/26 03:34:08;;;;;;;10.77;9.63;;;3.40;99.90;;;;;;4960855;28;20463;-79
2021/01/26 03:36:36;;;;;;;20.87;11.27;;;3.50;99.90;;;;;;4928637;29;20419;-79
2021/01/26 03:39:28;;;;;;;22.67;13.93;;;3.60;99.90;;;;;;4920303;29;20428;-80
2021/01/26 03:42:23;;;;;;;17.00;11.07;;;3.50;99.90;;;;;;4871531;29;20965;-80
2021/01/26 03:44:49;;;;;;;21.40;11.80;;;3.60;99.90;;;;;;4845164;29;20549;-80
2021/01/26 03:47:47;;;;;;;16.60;10.77;;;3.60;99.90;;;;;;4828286;29;20446;-80
2021/01/26 03:50:33;;;;;;;15.43;10.07;;;3.70;99.90;;;;;;4813885;29;20411;-80
2021/01/26 03:53:32;;;;;;;21.60;11.77;;;3.60;99.90;;;;;;4848224;29;20447;-80
2021/01/26 03:56:20;;;;;;;18.47;11.00;;;3.60;99.90;;;;;;4829205;29;21002;-80
2021/01/26 03:59:10;;;;;;;15.47;9.23;;;3.60;99.90;;;;;;4832489;29;20481;-79
2021/01/26 04:01:40;;;;;;;21.87;10.27;;;3.60;99.90;;;;;;4835922;29;20405;-79
2021/01/26 04:04:17;;;;;;;15.93;8.37;;;3.50;99.90;;;;;;4814390;29;20389;-79
2021/01/26 04:06:59;;;;;;;14.20;9.20;;;3.50;99.90;;;;;;4846439;29;20446;-79
2021/01/26 04:09:58;;;;;;;14.27;10.00;;;3.50;99.90;;;;;;4854096;29;20416;-80
2021/01/26 04:12:29;;;;;;;15.67;9.40;;;3.40;99.90;;;;;;4817704;29;20439;-79
2021/01/26 04:15:11;;;;;;;16.70;9.87;;;3.30;99.90;;;;;;4850233;29;20396;-79
2021/01/26 04:17:44;;;;;;;13.60;8.43;;;3.30;99.90;;;;;;4799142;29;21566;-80
2021/01/26 04:20:32;;;;;;;17.90;9.10;;;3.40;99.90;;;;;;4840009;29;20514;-79
2021/01/26 04:23:01;;;;;;;16.33;9.03;;;3.40;99.90;;;;;;4909164;29;20397;-80
2021/01/26 04:25:36;;;;;;;12.10;7.90;;;3.40;99.90;;;;;;4902434;29;20439;-80
2021/01/26 04:28:07;;;;;;;12.83;6.70;;;3.40;99.90;;;;;;4898934;29;20406;-79
2021/01/26 04:30:34;;;;;;;11.53;7.80;;;3.40;99.90;;;;;;4924518;29;20531;-80
2021/01/26 04:33:04;;;;;;;11.23;7.80;;;3.40;99.90;;;;;;4927528;29;20425;-79
2021/01/26 04:35:31;;;;;;;17.33;7.40;;;3.50;99.90;;;;;;4904579;29;20511;-80
2021/01/26 04:37:58;;;;;;;11.00;6.93;;;3.40;99.90;;;;;;4899026;29;20766;-79
2021/01/26 04:40:28;;;;;;;8.83;5.60;;;3.40;99.90;;;;;;4926890;29;20938;-78
2021/01/26 04:43:26;;;;;;;15.60;7.77;;;3.40;99.90;;;;;;4910077;29;20661;-81
2021/01/26 04:46:11;;;;;;;18.30;8.57;;;3.40;99.90;;;;;;4905842;29;20379;-79
2021/01/26 04:49:30;;;;;;;12.73;7.43;;;3.40;99.90;;;;;;4956685;28;20584;-79
2021/01/26 04:52:42;;;;;;;8.33;6.80;;;3.40;99.90;;;;;;4938249;28;20363;-80
2021/01/26 04:55:32;;;;;;;14.20;7.90;;;3.40;99.90;;;;;;4903318;29;20484;-79
2021/01/26 04:58:00;;;;;;;8.00;7.20;;;3.40;99.90;;;;;;4939478;28;20602;-79
2021/01/26 05:00:35;;;;;;;12.40;8.20;;;3.40;99.90;;;;;;4938476;29;20410;-79
2021/01/26 05:03:18;;;;;;;16.23;7.17;;;3.40;99.90;;;;;;4923544;29;20372;-80
2021/01/26 05:05:49;;;;;;;13.17;9.50;;;3.40;99.90;;;;;;4941010;28;20441;-79
2021/01/26 05:08:25;;;;;;;15.90;9.57;;;3.50;99.90;;;;;;4925262;28;20391;-79
2021/01/26 05:11:08;;;;;;;12.93;8.57;;;3.50;99.90;;;;;;4905049;29;21526;-80
2021/01/26 05:13:48;;;;;;;9.90;7.30;;;3.50;99.90;;;;;;4937687;28;20451;-79
2021/01/26 05:16:15;;;;;;;16.37;9.60;;;3.50;99.90;;;;;;4946830;28;20590;-79
2021/01/26 05:19:04;;;;;;;12.63;7.73;;;3.50;99.90;;;;;;4941227;28;20434;-79
2021/01/26 05:21:45;;;;;;;10.57;7.50;;;3.50;99.90;;;;;;4956513;28;20406;-80
2021/01/26 05:24:26;;;;;;;12.50;7.80;;;3.50;99.90;;;;;;4941520;28;20912;-79
2021/01/26 05:26:51;;;;;;;12.30;7.30;;;3.50;99.90;;;;;;4994919;28;20464;-80
2021/01/26 05:29:18;;;;;;;9.60;6.77;;;3.50;99.90;;;;;;4983596;28;20427;-79
2021/01/26 05:31:48;;;;;;;14.13;7.23;;;3.50;99.90;;;;;;4982516;28;20941;-79
2021/01/26 05:34:17;;;;;;;9.53;6.07;;;3.50;99.90;;;;;;4983947;28;20391;-80
2021/01/26 05:36:46;;;;;;;16.20;7.23;;;3.50;99.90;;;;;;4963265;28;20395;-79
2021/01/26 05:39:30;;;;;;;9.40;7.73;;;3.50;99.90;;;;;;4980765;28;20425;-80
2021/01/26 05:41:58;;;;;;;6.63;5.70;;;3.60;99.90;;;;;;4980552;28;20372;-80
2021/01/26 05:44:26;;;;;;;12.27;8.37;;;3.60;99.90;;;;;;4963639;28;20397;-80
2021/01/26 05:46:54;;;;;;;14.87;7.80;;;3.50;99.90;;;;;;4965444;28;20890;-79
2021/01/26 05:49:54;;;;;;;12.23;7.27;;;3.50;99.90;;;;;;4965098;28;20431;-77
2021/01/26 05:52:22;;;;;;;26.60;7.30;;;3.50;99.90;;;;;;4924731;28;20393;-80
2021/01/26 05:54:53;;;;;;;15.30;7.77;;;3.60;99.90;;;;;;4940561;28;20408;-80
2021/01/26 05:57:29;;;;;;;17.83;10.80;;;3.50;99.90;;;;;;4953554;28;20491;-79
2021/01/26 06:00:15;;;;;;;15.73;8.07;;;3.50;99.90;;;;;;4940664;28;20425;-78
2021/01/26 06:02:41;;;;;;;15.43;7.20;;;3.50;99.90;;;;;;4922371;28;20891;-79
2021/01/26 06:05:10;;;;;;;10.27;8.40;;;3.50;99.90;;;;;;4937809;28;20426;-78
2021/01/26 06:07:37;;;;;;;9.30;8.30;;;3.50;99.90;;;;;;4929722;28;20429;-78
2021/01/26 06:10:19;;;;;;;22.97;9.30;;;3.50;99.90;;;;;;4942346;28;20509;-80
2021/01/26 06:12:54;;;;;;;11.80;7.27;;;3.60;99.90;;;;;;4943236;28;20420;-80
2021/01/26 06:15:23;;;;;;;12.87;8.87;;;3.50;99.90;;;;;;4940533;28;20776;-79
2021/01/26 06:17:49;;;;;;;20.23;10.20;;;3.50;99.90;;;;;;4957203;28;20440;-78
2021/01/26 06:20:25;;;;;;;20.13;8.90;;;3.50;99.90;;;;;;4946134;28;20397;-79
2021/01/26 06:22:53;;;;;;;12.03;8.93;;;3.50;99.90;;;;;;4945263;28;20513;-79
2021/01/26 06:25:26;;;;;;;15.50;9.83;;;3.50;99.90;;;;;;4927497;28;20471;-77
2021/01/26 06:28:09;;;;;;;16.47;10.40;;;3.50;99.90;;;;;;4989334;28;20420;-79
2021/01/26 06:31:16;;;;;;;20.40;11.43;;;3.50;99.90;;;;;;4997388;28;21062;-78
2021/01/26 06:33:51;;;;;;;24.87;11.97;;;3.50;99.90;;;;;;5014539;28;20835;-78
2021/01/26 06:36:47;;;;;;;30.77;12.60;;;3.50;99.90;;;;;;5023585;28;20876;-78
2021/01/26 06:39:18;;;;;;;27.90;13.10;;;3.50;99.90;;;;;;4898639;29;20496;-78
2021/01/26 06:42:02;;;;;;;17.60;13.20;;;3.50;99.90;;;;;;4929026;28;20459;-80
2021/01/26 06:44:37;;;;;;;20.40;12.70;;;3.60;99.90;;;;;;4897676;29;20463;-78
2021/01/26 06:47:45;;;;;;;21.07;11.93;;;3.60;99.90;;;;;;4896424;29;20425;-78
2021/01/26 06:50:16;;;;;;;16.50;13.00;;;3.60;99.90;;;;;;4895769;29;20425;-78
2021/01/26 06:52:58;;;;;;;32.03;13.37;;;3.60;99.90;;;;;;4899279;29;20405;-79
2021/01/26 06:55:24;;;;;;;21.00;11.80;;;3.70;99.90;;;;;;4912857;29;20928;-79
2021/01/26 06:57:56;;;;;;;30.03;11.73;;;3.70;99.90;;;;;;4914348;29;20435;-79
2021/01/26 07:00:27;;;;;;;27.97;13.10;;;3.70;99.90;;;;;;4931117;28;20390;-80
2021/01/26 07:03:29;;;;;;;25.07;13.33;;;3.70;99.90;;;;;;4927772;28;20396;-81
2021/01/26 07:06:04;;;;;;;22.90;12.60;;;3.70;99.90;;;;;;4880913;29;20397;-79
2021/01/26 07:08:36;;;;;;;16.23;9.43;;;3.70;99.90;;;;;;4897711;29;20388;-78
2021/01/26 07:11:28;;;;;;;18.10;11.57;;;3.60;99.90;;;;;;4912156;29;20430;-78
2021/01/26 07:14:26;;;;;;;12.33;9.20;;;3.70;99.90;;;;;;4918972;29;20430;-79
2021/01/26 07:17:06;;;;;;;17.73;10.90;;;3.70;99.90;;;;;;4982678;28;20478;-79
2021/01/26 07:19:45;;;;;;;13.30;8.90;;;3.70;99.90;;;;;;4995476;28;20428;-80
2021/01/26 07:22:33;;;;;;;24.03;11.17;;;3.70;99.90;;;;;;4997096;28;20461;-80
2021/01/26 07:25:24;;;;;;;15.80;7.13;;;3.70;99.90;;;;;;4981480;28;20423;-80
2021/01/26 07:28:15;;;;;;;17.30;8.83;;;3.70;99.90;;;;;;4982258;28;20457;-80
2021/01/26 07:30:55;;;;;;;9.40;8.20;;;3.70;99.90;;;;;;4978304;28;20384;-80
2021/01/26 07:33:35;;;;;;;14.90;8.03;;;3.70;99.90;;;;;;4964657;28;20583;-80
2021/01/26 07:36:24;;;;;;;14.93;8.43;;;3.70;99.90;;;;;;5011365;28;21198;-81
2021/01/26 07:39:31;;;;;;;9.40;8.27;;;3.70;99.90;;;;;;5014045;28;20917;-80
2021/01/26 07:42:07;;;;;;;13.03;7.17;;;3.70;99.90;;;;;;4974835;28;20424;-80
2021/01/26 07:44:40;;;;;;;13.30;8.60;;;3.70;99.90;;;;;;4999400;28;20389;-80
2021/01/26 07:47:30;;;;;;;11.80;7.10;;;3.70;99.90;;;;;;4979738;28;20551;-81
2021/01/26 07:50:05;;;;;;;12.73;7.50;;;3.70;99.90;;;;;;4979190;28;20367;-81
2021/01/26 07:52:35;;;;;;;19.00;7.80;;;3.70;99.90;;;;;;4996967;28;20481;-80
2021/01/26 07:55:10;;;;;;;11.77;7.33;;;3.70;99.90;;;;;;5001393;28;20394;-80
2021/01/26 07:58:15;;;;;;;15.20;9.23;;;3.70;99.90;;;;;;4997174;28;20420;-79
2021/01/26 08:00:50;;;;;;;17.53;7.70;;;3.70;99.90;;;;;;4931792;28;20520;-80
2021/01/26 08:03:22;;;;;;;19.47;9.40;;;3.70;99.90;;;;;;4936573;28;20405;-80
2021/01/26 08:05:52;;;;;;;16.30;8.37;;;3.70;99.90;;;;;;4920628;28;20773;-80
2021/01/26 08:08:20;;;;;;;16.20;9.33;;;3.70;99.90;;;;;;4934790;28;20435;-80
2021/01/26 08:11:02;;;;;;;11.10;8.00;;;3.80;99.90;;;;;;4934361;28;20805;-80
2021/01/26 08:13:30;;;;;;;13.67;9.23;;;3.70;99.90;;;;;;4936838;28;20480;-81
2021/01/26 08:15:55;;;;;;;18.73;9.10;;;3.70;99.90;;;;;;4906627;28;20421;-80
2021/01/26 08:18:32;;;;;;;19.93;9.90;;;3.70;99.90;;;;;;4958993;28;20421;-80
2021/01/26 08:20:58;;;;;;;19.20;10.20;;;3.70;99.90;;;;;;4954852;28;20434;-80
2021/01/26 08:23:29;;;;;;;15.70;10.80;;;3.80;99.90;;;;;;4945155;28;20737;-81
2021/01/26 08:26:15;;;;;;;16.30;9.27;;;3.80;99.90;;;;;;4956652;28;23079;-80
2021/01/26 08:28:45;;;;;;;27.77;10.80;;;3.80;99.90;;;;;;4953761;28;20463;-81
2021/01/26 08:31:31;;;;;;;20.07;10.20;;;3.80;99.90;;;;;;4951944;28;20523;-81
2021/01/26 08:34:21;;;;;;;22.50;11.43;;;3.80;99.90;;;;;;4963530;28;20354;-79
2021/01/26 08:37:09;;;;;;;14.70;10.07;;;3.90;99.90;;;;;;4952157;28;20445;-80
2021/01/26 08:39:45;;;;;;;17.73;10.07;;;3.90;99.90;;;;;;4964065;28;20359;-80
2021/01/26 08:42:41;;;;;;;19.93;8.80;;;3.90;99.90;;;;;;4990275;28;20929;-80
2021/01/26 08:45:33;;;;;;;18.30;9.90;;;3.90;99.90;;;;;;4982817;28;20416;-79
2021/01/26 08:48:01;;;;;;;21.67;9.37;;;4.00;99.90;;;;;;4982591;28;20871;-80
2021/01/26 08:50:37;;;;;;;20.03;9.37;;;4.00;99.90;;;;;;5001416;28;20975;-81
2021/01/26 08:53:23;;;;;;;13.20;8.77;;;3.90;99.90;;;;;;4984537;28;20425;-82
2021/01/26 08:55:54;;;;;;;14.87;9.37;;;4.00;99.90;;;;;;4976419;28;20363;-81
2021/01/26 08:58:40;;;;;;;24.27;9.73;;;4.00;99.90;;;;;;4996013;28;20507;-80
2021/01/26 09:01:11;;;;;;;14.40;10.23;;;4.00;99.90;;;;;;4976964;28;20412;-81
2021/01/26 09:03:41;;;;;;;14.80;7.33;;;3.90;99.90;;;;;;4974710;28;20431;-79
2021/01/26 09:06:40;;;;;;;15.67;9.90;;;3.80;99.90;;;;;;4980166;28;20385;-79
2021/01/26 09:09:09;;;;;;;17.80;10.37;;;3.70;99.90;;;;;;4967031;28;20875;-78
2021/01/26 09:11:43;;;;;;;14.23;10.07;;;3.80;99.90;;;;;;4959456;28;20424;-80
2021/01/26 09:14:12;;;;;;;20.30;11.77;;;3.70;99.90;;;;;;5006202;28;20451;-79
2021/01/26 09:16:41;;;;;;;23.47;11.17;;;3.80;99.90;;;;;;4965137;28;21285;-79
2021/01/26 09:19:16;;;;;;;19.47;14.30;;;3.80;99.90;;;;;;4952537;28;20954;-78
2021/01/26 09:21:43;;;;;;;25.00;17.20;;;3.80;99.90;;;;;;4963292;28;20414;-79
2021/01/26 09:24:16;;;;;;;22.67;12.60;;;3.80;99.90;;;;;;4958488;28;20421;-80
2021/01/26 09:26:43;;;;;;;16.27;10.00;;;3.90;99.90;;;;;;4974774;28;20386;-79
2021/01/26 09:29:27;;;;;;;15.20;9.67;;;4.00;99.90;;;;;;4975664;28;20426;-80
2021/01/26 09:31:55;;;;;;;20.37;10.90;;;3.90;99.90;;;;;;4989974;28;20464;-79
2021/01/26 09:34:28;;;;;;;16.70;10.37;;;3.90;99.90;;;;;;4943202;28;23370;-81
2021/01/26 09:37:26;;;;;;;23.03;10.90;;;3.90;99.90;;;;;;4977914;28;20405;-80
2021/01/26 09:40:06;;;;;;;17.47;10.57;;;3.90;99.90;;;;;;4943439;28;20426;-79
2021/01/26 09:42:33;;;;;;;17.00;9.53;;;4.00;99.90;;;;;;4955844;28;24289;-79
2021/01/26 09:45:25;;;;;;;19.03;9.83;;;4.00;99.90;;;;;;4976584;28;20399;-81
2021/01/26 09:47:52;;;;;;;16.00;9.43;;;4.00;99.90;;;;;;4895252;29;20641;-79
2021/01/26 09:50:20;;;;;;;22.30;10.50;;;4.00;99.90;;;;;;4845236;29;20395;-80
2021/01/26 09:52:47;;;;;;;36.03;11.43;;;4.10;99.90;;;;;;4880492;29;20525;-80
2021/01/26 09:55:15;;;;;;;16.60;10.77;;;4.20;99.90;;;;;;4877818;29;20478;-79
2021/01/26 09:57:42;;;;;;;11.10;9.63;;;4.20;99.90;;;;;;4879108;29;20958;-80
2021/01/26 10:00:20;;;;;;;23.93;9.93;;;4.10;99.90;;;;;;4861167;29;20459;-81
2021/01/26 10:02:56;;;;;;;20.53;10.97;;;4.20;99.90;;;;;;4892749;29;20530;-80
2021/01/26 10:05:24;;;;;;;23.47;9.50;;;4.30;99.90;;;;;;4892190;29;20380;-79
2021/01/26 10:08:05;;;;;;;14.67;8.90;;;4.20;99.90;;;;;;4876301;29;21101;-80
2021/01/26 10:10:32;;;;;;;10.87;9.53;;;4.20;99.90;;;;;;4877829;29;20432;-80
2021/01/26 10:13:23;;;;;;;16.73;10.17;;;4.30;99.90;;;;;;4877131;29;20508;-80
2021/01/26 10:15:49;;;;;;;17.17;9.97;;;4.20;99.90;;;;;;4878680;29;20456;-80
2021/01/26 10:18:18;;;;;;;12.23;9.47;;;4.30;99.90;;;;;;4882921;29;20459;-80
2021/01/26 10:20:44;;;;;;;20.17;9.97;;;4.30;99.90;;;;;;4894504;29;20218;-80
2021/01/26 10:23:23;;;;;;;10.53;9.33;;;4.30;99.90;;;;;;4896154;29;20463;-79
2021/01/26 10:25:52;;;;;;;22.73;10.53;;;4.40;99.90;;;;;;5006626;28;20233;-80
2021/01/26 10:28:26;;;;;;;15.73;8.67;;;4.30;99.90;;;;;;4990174;28;20437;-79
2021/01/26 10:30:54;;;;;;;11.17;7.63;;;4.20;99.90;;;;;;4992126;28;22107;-79
2021/01/26 10:33:40;;;;;;;12.73;8.67;;;4.20;99.90;;;;;;4976630;28;20370;-79
2021/01/26 10:36:24;;;;;;;16.97;9.33;;;4.10;99.90;;;;;;4989672;28;20905;-79
2021/01/26 10:38:53;;;;;;;13.23;9.97;;;4.20;99.90;;;;;;4975487;28;20435;-79
2021/01/26 10:41:38;;;;;;;17.43;10.20;;;4.20;99.90;;;;;;4955092;28;21415;-79
2021/01/26 10:44:15;;;;;;;16.53;10.03;;;4.20;99.90;;;;;;5004286;28;20428;-78
2021/01/26 10:46:44;;;;;;;14.03;9.60;;;4.10;99.90;;;;;;4985255;28;20447;-78
2021/01/26 10:49:23;;;;;;;18.60;10.40;;;4.20;99.90;;;;;;4993901;28;20387;-79
2021/01/26 10:51:49;;;;;;;14.20;10.17;;;4.20;99.90;;;;;;5008038;28;20438;-79
2021/01/26 10:54:16;;;;;;;20.27;10.80;;;4.20;99.90;;;;;;4998320;28;20423;-79
2021/01/26 10:56:43;;;;;;;10.13;8.20;;;4.20;99.90;;;;;;4974400;28;20467;-80
2021/01/26 10:59:11;;;;;;;20.57;10.77;;;4.40;99.90;;;;;;4975014;28;20409;-78
2021/01/26 11:01:40;;;;;;;19.80;12.27;;;4.40;99.90;;;;;;4991820;28;20477;-79
2021/01/26 11:04:06;;;;;;;11.50;8.87;;;4.40;99.90;;;;;;4965410;28;20424;-79
2021/01/26 11:06:32;;;;;;;11.97;8.87;;;4.30;99.90;;;;;;4975529;28;20460;-78
2021/01/26 11:09:00;;;;;;;8.67;6.50;;;4.00;99.90;;;;;;4977668;28;20980;-79
2021/01/26 11:11:28;;;;;;;8.67;7.60;;;3.90;99.90;;;;;;4977354;28;20402;-79
2021/01/26 11:13:55;;;;;;;10.87;8.30;;;3.90;99.90;;;;;;5008278;28;20496;-79
2021/01/26 11:16:22;;;;;;;14.20;10.03;;;3.90;99.90;;;;;;4976744;28;20452;-79
2021/01/26 11:18:50;;;;;;;13.33;9.77;;;3.70;99.90;;;;;;4974118;28;20431;-79
2021/01/26 11:21:17;;;;;;;14.20;11.90;;;3.70;99.90;;;;;;4970698;28;20897;-78
2021/01/26 11:23:43;;;;;;;9.50;7.60;;;3.70;99.90;;;;;;4960458;28;20410;-78
2021/01/26 11:26:14;;;;;;;6.40;5.73;;;3.60;99.90;;;;;;4958101;28;20545;-78
2021/01/26 11:28:40;;;;;;;12.83;10.33;;;3.70;99.90;;;;;;4994020;28;20379;-79
2021/01/26 11:31:07;;;;;;;8.70;6.90;;;3.60;99.90;;;;;;4995036;28;20445;-78
2021/01/26 11:33:36;;;;;;;8.57;6.27;;;3.40;99.90;;;;;;5008739;28;20457;-78
2021/01/26 11:36:04;;;;;;;7.03;5.50;;;3.60;99.90;;;;;;4972565;28;20430;-79
2021/01/26 11:38:32;;;;;;;7.10;5.47;;;3.60;99.90;;;;;;4995235;28;20405;-79
2021/01/26 11:40:59;;;;;;;9.23;5.97;;;3.70;99.90;;;;;;4975520;28;20425;-79
2021/01/26 11:43:25;;;;;;;11.57;8.53;;;3.70;99.90;;;;;;4975555;28;20509;-79
2021/01/26 11:45:51;;;;;;;7.90;5.70;;;3.70;99.90;;;;;;4997067;28;20438;-79
2021/01/26 11:48:17;;;;;;;12.60;8.70;;;3.70;99.90;;;;;;4993309;28;20893;-78
2021/01/26 11:50:43;;;;;;;12.77;8.70;;;3.60;99.90;;;;;;4993344;28;20591;-78
2021/01/26 11:53:14;;;;;;;14.33;8.10;;;3.60;99.90;;;;;;4978740;28;20568;-79
2021/01/26 11:55:41;;;;;;;9.77;5.97;;;3.50;99.90;;;;;;5011924;28;20455;-78
2021/01/26 11:58:09;;;;;;;13.57;11.60;;;3.50;99.90;;;;;;4996196;28;20391;-78
2021/01/26 12:00:35;;;;;;;7.83;6.60;;;3.60;99.90;;;;;;4989435;28;20427;-79
2021/01/26 12:03:03;;;;;;;5.70;5.20;;;3.80;99.90;;;;;;4975607;28;20406;-78
2021/01/26 12:05:31;;;;;;;6.80;6.10;;;3.90;99.90;;;;;;4995526;28;20502;-79
2021/01/26 12:07:57;;;;;;;5.40;4.90;;;4.00;99.90;;;;;;4993033;28;20488;-78
2021/01/26 12:10:25;;;;;;;8.03;5.60;;;4.10;99.90;;;;;;4991558;28;20884;-78
2021/01/26 12:12:52;;;;;;;6.50;5.90;;;4.00;99.90;;;;;;4992284;28;20217;-79
2021/01/26 12:15:27;;;;;;;7.77;6.97;;;4.10;99.90;;;;;;4959181;28;20402;-81
2021/01/26 12:17:53;;;;;;;8.50;7.07;;;4.20;99.90;;;;;;4978069;28;20912;-79
2021/01/26 12:20:20;;;;;;;12.03;6.13;;;4.20;99.90;;;;;;4972325;28;20435;-78
2021/01/26 12:22:47;;;;;;;11.43;7.50;;;4.40;99.90;;;;;;4990190;28;20399;-78
2021/01/26 12:25:17;;;;;;;6.70;6.17;;;4.40;99.90;;;;;;4956332;28;20415;-79
2021/01/26 12:27:43;;;;;;;11.27;10.17;;;4.70;99.90;;;;;;4991409;28;20449;-79
2021/01/26 12:30:10;;;;;;;12.30;9.30;;;4.90;99.90;;;;;;4975267;28;20394;-78
2021/01/26 12:32:37;;;;;;;10.83;9.80;;;5.20;99.90;;;;;;4989238;28;20962;-79
2021/01/26 12:35:23;;;;;;;14.17;9.40;;;5.30;99.90;;;;;;5005404;28;20920;-79
2021/01/26 12:37:50;;;;;;;9.67;8.67;;;5.60;99.90;;;;;;5006314;28;20445;-79
2021/01/26 12:40:16;;;;;;;9.50;8.60;;;6.00;99.90;;;;;;4972434;28;20434;-79
2021/01/26 12:42:43;;;;;;;9.13;8.13;;;6.40;99.90;;;;;;4975094;28;20915;-79
2021/01/26 12:45:11;;;;;;;11.53;9.20;;;6.60;99.90;;;;;;4976004;28;20523;-79
2021/01/26 12:47:38;;;;;;;9.67;8.77;;;6.30;99.90;;;;;;4987979;28;20474;-79
2021/01/26 12:50:10;;;;;;;9.47;8.63;;;6.20;99.90;;;;;;5005379;28;20461;-79
2021/01/26 12:52:37;;;;;;;11.70;9.70;;;6.70;99.90;;;;;;4993983;28;20452;-78
2021/01/26 12:55:03;;;;;;;11.87;8.43;;;6.70;99.90;;;;;;4977404;28;20425;-80
2021/01/26 12:57:29;;;;;;;11.03;6.87;;;6.50;99.90;;;;;;4995576;28;20426;-80
2021/01/26 12:59:55;;;;;;;10.13;6.10;;;6.60;99.90;;;;;;4974426;28;20496;-80
2021/01/26 13:02:22;;;;;;;9.30;6.30;;;6.60;99.90;;;;;;4958651;28;20230;-78
2021/01/26 13:04:48;;;;;;;15.53;6.63;;;6.90;99.90;;;;;;5009552;28;20254;-79
2021/01/26 13:07:17;;;;;;;11.83;5.83;;;6.70;99.90;;;;;;4957096;28;20431;-78
2021/01/26 13:09:45;;;;;;;5.83;5.23;;;6.40;99.90;;;;;;4973319;28;20461;-79
2021/01/26 13:12:11;;;;;;;9.87;5.83;;;6.50;99.90;;;;;;4993518;28;20900;-78
2021/01/26 13:15:07;;;;;;;7.83;4.03;;;6.60;99.90;;;;;;4976534;28;21011;-79
2021/01/26 13:17:32;;;;;;;16.73;4.27;;;6.50;99.90;;;;;;4902352;29;20438;-79
2021/01/26 13:19:58;;;;;;;8.73;3.93;;;6.30;99.90;;;;;;4885712;29;20449;-81
2021/01/26 13:22:25;;;;;;;5.70;4.73;;;6.50;99.90;;;;;;4915999;28;20230;-79